createdAt,value
2022-08-26T00:00:21.561Z,985.36
2022-08-26T00:01:24.196Z,985.36
2022-08-26T00:02:22.600Z,985.39
2022-08-26T00:03:21.531Z,985.37
2022-08-26T00:04:21.646Z,985.35
2022-08-26T00:05:21.508Z,985.39
2022-08-26T00:06:21.516Z,985.41
2022-08-26T00:07:21.489Z,985.36
2022-08-26T00:08:21.500Z,985.38
2022-08-26T00:09:21.471Z,985.40
2022-08-26T00:10:21.476Z,985.36
2022-08-26T00:11:26.896Z,985.38
2022-08-26T00:12:21.444Z,985.35
2022-08-26T00:13:22.425Z,985.36
2022-08-26T00:14:21.418Z,985.37
2022-08-26T00:15:21.407Z,985.35
2022-08-26T00:16:21.487Z,985.36
2022-08-26T00:17:21.386Z,985.37
2022-08-26T00:18:22.125Z,985.38
2022-08-26T00:19:21.379Z,985.39
2022-08-26T00:20:21.364Z,985.40
2022-08-26T00:21:21.370Z,985.38
2022-08-26T00:22:21.577Z,985.41
2022-08-26T00:23:24.249Z,985.45
2022-08-26T00:24:21.351Z,985.43
2022-08-26T00:25:21.307Z,985.42
2022-08-26T00:26:21.316Z,985.40
2022-08-26T00:27:21.284Z,985.45
2022-08-26T00:28:21.486Z,985.43
2022-08-26T00:29:21.444Z,985.49
2022-08-26T00:30:22.922Z,985.46
2022-08-26T00:31:21.281Z,985.49
2022-08-26T00:32:21.268Z,985.49
2022-08-26T00:33:21.231Z,985.51
2022-08-26T00:34:21.234Z,985.49
2022-08-26T00:35:21.210Z,985.50
2022-08-26T00:36:21.210Z,985.52
2022-08-26T00:37:21.213Z,985.53
2022-08-26T00:38:21.170Z,985.47
2022-08-26T00:39:21.166Z,985.53
2022-08-26T00:40:21.211Z,985.51
2022-08-26T00:41:21.157Z,985.49
2022-08-26T00:42:21.132Z,985.50
2022-08-26T00:43:21.123Z,985.48
2022-08-26T00:44:21.119Z,985.45
2022-08-26T00:45:21.098Z,985.43
2022-08-26T00:46:21.112Z,985.45
2022-08-26T00:47:21.079Z,985.46
2022-08-26T00:48:21.069Z,985.40
2022-08-26T00:49:21.068Z,985.38
2022-08-26T00:50:21.051Z,985.40
2022-08-26T00:51:21.052Z,985.38
2022-08-26T00:52:21.029Z,985.41
2022-08-26T00:53:25.890Z,985.39
2022-08-26T00:54:22.011Z,985.38
2022-08-26T00:55:20.997Z,985.35
2022-08-26T00:56:21.023Z,985.35
2022-08-26T00:57:20.999Z,985.34
2022-08-26T00:58:20.970Z,985.36
2022-08-26T00:59:20.971Z,985.35
2022-08-26T01:00:20.949Z,985.33
2022-08-26T01:01:23.016Z,985.34
2022-08-26T01:02:21.735Z,985.29
2022-08-26T01:03:20.917Z,985.30
2022-08-26T01:04:20.906Z,985.29
2022-08-26T01:05:20.897Z,985.24
2022-08-26T01:06:20.912Z,985.27
2022-08-26T01:07:20.878Z,985.29
2022-08-26T01:08:20.883Z,985.24
2022-08-26T01:09:20.862Z,985.25
2022-08-26T01:10:20.851Z,985.22
2022-08-26T01:11:20.859Z,985.27
2022-08-26T01:12:22.226Z,985.27
2022-08-26T01:13:20.834Z,985.27
2022-08-26T01:14:20.810Z,985.32
2022-08-26T01:15:20.800Z,985.32
2022-08-26T01:16:20.889Z,985.40
2022-08-26T01:17:20.773Z,985.40
2022-08-26T01:18:20.764Z,985.52
2022-08-26T01:19:20.779Z,985.64
2022-08-26T01:20:20.746Z,985.72
2022-08-26T01:21:20.766Z,985.74
2022-08-26T01:22:20.740Z,985.73
2022-08-26T01:23:21.718Z,985.66
2022-08-26T01:24:20.703Z,985.68
2022-08-26T01:25:20.699Z,985.67
2022-08-26T01:26:20.699Z,985.65
2022-08-26T01:27:20.674Z,985.67
2022-08-26T01:28:20.663Z,985.68
2022-08-26T01:29:20.653Z,985.67
2022-08-26T01:30:20.649Z,985.74
2022-08-26T01:31:20.735Z,985.80
2022-08-26T01:32:20.644Z,985.84
2022-08-26T01:33:20.622Z,985.81
2022-08-26T01:34:20.627Z,985.85
2022-08-26T01:35:20.593Z,985.85
2022-08-26T01:36:20.594Z,985.84
2022-08-26T01:37:20.587Z,985.86
2022-08-26T01:38:20.560Z,985.87
2022-08-26T01:39:20.554Z,985.89
2022-08-26T01:40:20.604Z,985.92
2022-08-26T01:41:27.280Z,985.94
2022-08-26T01:42:21.525Z,985.93
2022-08-26T01:43:20.510Z,985.96
2022-08-26T01:44:20.502Z,985.95
2022-08-26T01:45:20.501Z,985.98
2022-08-26T01:46:20.493Z,985.96
2022-08-26T01:47:20.503Z,985.99
2022-08-26T01:48:20.458Z,985.99
2022-08-26T01:49:20.448Z,985.96
2022-08-26T01:50:28.272Z,986.02
2022-08-26T01:51:21.429Z,985.98
2022-08-26T01:52:20.426Z,986.03
2022-08-26T01:53:21.401Z,986.04
2022-08-26T01:54:20.431Z,986.08
2022-08-26T01:55:32.372Z,986.07
2022-08-26T01:56:21.371Z,986.06
2022-08-26T01:57:20.406Z,986.06
2022-08-26T01:58:20.379Z,986.03
2022-08-26T01:59:20.362Z,986.05
2022-08-26T02:00:20.359Z,986.06
2022-08-26T02:01:20.359Z,986.07
2022-08-26T02:02:20.333Z,986.08
2022-08-26T02:03:20.304Z,986.07
2022-08-26T02:04:20.346Z,986.04
2022-08-26T02:05:20.288Z,986.06
2022-08-26T02:06:20.280Z,986.07
2022-08-26T02:07:20.279Z,986.04
2022-08-26T02:08:24.549Z,986.06
2022-08-26T02:09:20.355Z,986.02
2022-08-26T02:10:20.237Z,986.09
2022-08-26T02:11:20.225Z,986.04
2022-08-26T02:12:20.240Z,986.06
2022-08-26T02:13:20.216Z,986.05
2022-08-26T02:14:20.192Z,986.05
2022-08-26T02:15:20.184Z,986.08
2022-08-26T02:16:20.220Z,986.07
2022-08-26T02:17:20.175Z,986.11
2022-08-26T02:18:20.157Z,986.12
2022-08-26T02:19:20.145Z,986.13
2022-08-26T02:20:20.130Z,986.11
2022-08-26T02:21:20.122Z,986.13
2022-08-26T02:22:20.145Z,986.10
2022-08-26T02:23:20.103Z,986.14
2022-08-26T02:24:20.113Z,986.15
2022-08-26T02:25:20.081Z,986.13
2022-08-26T02:26:20.071Z,986.16
2022-08-26T02:27:20.079Z,986.18
2022-08-26T02:28:20.048Z,986.16
2022-08-26T02:29:20.043Z,986.17
2022-08-26T02:30:20.028Z,986.16
2022-08-26T02:31:20.104Z,986.23
2022-08-26T02:32:20.033Z,986.17
2022-08-26T02:33:20.015Z,986.16
2022-08-26T02:34:20.021Z,986.15
2022-08-26T02:35:20.415Z,986.13
2022-08-26T02:36:19.976Z,986.08
2022-08-26T02:37:20.175Z,986.14
2022-08-26T02:38:19.947Z,986.14
2022-08-26T02:39:22.262Z,986.15
2022-08-26T02:40:20.040Z,986.13
2022-08-26T02:41:19.932Z,986.18
2022-08-26T02:42:19.924Z,986.18
2022-08-26T02:43:31.209Z,986.15
2022-08-26T02:44:20.886Z,986.15
2022-08-26T02:45:23.277Z,986.11
2022-08-26T02:46:21.528Z,986.16
2022-08-26T02:47:20.867Z,986.13
2022-08-26T02:48:19.844Z,986.14
2022-08-26T02:49:19.833Z,986.14
2022-08-26T02:50:19.825Z,986.11
2022-08-26T02:51:19.822Z,986.18
2022-08-26T02:52:19.816Z,986.17
2022-08-26T02:53:24.916Z,986.18
2022-08-26T02:54:20.789Z,986.19
2022-08-26T02:55:19.791Z,986.21
2022-08-26T02:56:19.761Z,986.14
2022-08-26T02:57:19.773Z,986.19
2022-08-26T02:58:19.737Z,986.12
2022-08-26T02:59:19.742Z,986.18
2022-08-26T03:00:19.745Z,986.12
2022-08-26T03:01:19.821Z,986.11
2022-08-26T03:02:19.794Z,986.14
2022-08-26T03:03:19.689Z,986.14
2022-08-26T03:04:19.676Z,986.16
2022-08-26T03:05:19.669Z,986.13
2022-08-26T03:06:19.661Z,986.13
2022-08-26T03:07:19.691Z,986.14
2022-08-26T03:08:19.650Z,986.13
2022-08-26T03:09:19.649Z,986.11
2022-08-26T03:10:19.645Z,986.17
2022-08-26T03:11:19.605Z,986.17
2022-08-26T03:12:19.607Z,986.07
2022-08-26T03:13:19.584Z,986.09
2022-08-26T03:14:19.575Z,986.11
2022-08-26T03:15:19.568Z,986.14
2022-08-26T03:16:19.585Z,986.11
2022-08-26T03:17:19.563Z,986.09
2022-08-26T03:18:19.528Z,986.10
2022-08-26T03:19:19.520Z,986.14
2022-08-26T03:20:19.534Z,986.11
2022-08-26T03:21:19.518Z,986.08
2022-08-26T03:22:19.541Z,986.10
2022-08-26T03:23:19.498Z,986.10
2022-08-26T03:24:19.467Z,986.13
2022-08-26T03:25:19.460Z,986.13
2022-08-26T03:26:19.446Z,986.15
2022-08-26T03:27:19.455Z,986.13
2022-08-26T03:28:19.494Z,986.14
2022-08-26T03:29:19.415Z,986.15
2022-08-26T03:30:19.416Z,986.16
2022-08-26T03:31:19.453Z,986.11
2022-08-26T03:32:20.398Z,986.17
2022-08-26T03:33:19.380Z,986.14
2022-08-26T03:34:19.414Z,986.12
2022-08-26T03:35:19.368Z,986.14
2022-08-26T03:36:19.341Z,986.09
2022-08-26T03:37:19.347Z,986.13
2022-08-26T03:38:19.328Z,986.10
2022-08-26T03:39:19.331Z,986.08
2022-08-26T03:40:20.331Z,986.07
2022-08-26T03:41:19.291Z,986.06
2022-08-26T03:42:21.515Z,986.01
2022-08-26T03:43:19.270Z,986.05
2022-08-26T03:44:19.271Z,986.06
2022-08-26T03:45:19.271Z,986.08
2022-08-26T03:46:19.288Z,986.04
2022-08-26T03:47:19.277Z,986.06
2022-08-26T03:48:19.225Z,986.08
2022-08-26T03:49:19.213Z,986.07
2022-08-26T03:50:22.687Z,986.07
2022-08-26T03:51:19.186Z,986.03
2022-08-26T03:52:19.192Z,986.04
2022-08-26T03:53:20.586Z,986.04
2022-08-26T03:54:19.151Z,986.09
2022-08-26T03:55:19.145Z,986.10
2022-08-26T03:56:19.133Z,986.10
2022-08-26T03:57:19.125Z,986.10
2022-08-26T03:58:19.138Z,986.09
2022-08-26T03:59:19.105Z,986.14
2022-08-26T04:00:19.090Z,986.13
2022-08-26T04:01:19.164Z,986.17
2022-08-26T04:02:19.069Z,986.16
2022-08-26T04:03:19.370Z,986.11
2022-08-26T04:04:19.045Z,986.13
2022-08-26T04:05:19.039Z,986.10
2022-08-26T04:06:19.029Z,986.10
2022-08-26T04:07:19.033Z,986.16
2022-08-26T04:08:19.031Z,986.13
2022-08-26T04:09:18.998Z,986.12
2022-08-26T04:10:20.053Z,986.13
2022-08-26T04:11:18.987Z,986.15
2022-08-26T04:12:19.007Z,986.10
2022-08-26T04:13:18.971Z,986.10
2022-08-26T04:14:19.995Z,986.13
2022-08-26T04:15:18.940Z,986.09
2022-08-26T04:16:18.998Z,986.11
2022-08-26T04:17:18.916Z,986.10
2022-08-26T04:18:18.939Z,986.12
2022-08-26T04:19:18.896Z,986.09
2022-08-26T04:20:18.894Z,986.11
2022-08-26T04:21:18.891Z,986.12
2022-08-26T04:22:24.196Z,986.14
2022-08-26T04:23:19.865Z,986.12
2022-08-26T04:24:18.839Z,986.13
2022-08-26T04:25:18.828Z,986.12
2022-08-26T04:26:18.817Z,986.12
2022-08-26T04:27:18.810Z,986.13
2022-08-26T04:28:18.814Z,986.08
2022-08-26T04:29:18.801Z,986.08
2022-08-26T04:30:18.785Z,986.11
2022-08-26T04:31:18.910Z,986.09
2022-08-26T04:32:18.761Z,986.07
2022-08-26T04:33:18.760Z,986.09
2022-08-26T04:34:19.735Z,986.09
2022-08-26T04:35:20.934Z,986.09
2022-08-26T04:36:19.954Z,986.10
2022-08-26T04:37:18.703Z,986.07
2022-08-26T04:38:18.707Z,986.08
2022-08-26T04:39:18.813Z,986.08
2022-08-26T04:40:18.823Z,986.12
2022-08-26T04:41:18.660Z,986.14
2022-08-26T04:42:23.271Z,986.10
2022-08-26T04:43:19.689Z,986.08
2022-08-26T04:44:18.631Z,986.11
2022-08-26T04:45:18.619Z,986.10
2022-08-26T04:46:18.634Z,986.12
2022-08-26T04:47:18.610Z,986.13
2022-08-26T04:48:18.602Z,986.09
2022-08-26T04:49:18.580Z,986.14
2022-08-26T04:50:18.566Z,986.18
2022-08-26T04:51:18.555Z,986.19
2022-08-26T04:52:18.544Z,986.19
2022-08-26T04:53:18.554Z,986.25
2022-08-26T04:54:18.523Z,986.26
2022-08-26T04:55:18.517Z,986.27
2022-08-26T04:56:18.518Z,986.27
2022-08-26T04:57:18.528Z,986.31
2022-08-26T04:58:18.495Z,986.28
2022-08-26T04:59:18.488Z,986.32
2022-08-26T05:00:18.464Z,986.34
2022-08-26T05:01:18.483Z,986.36
2022-08-26T05:02:18.440Z,986.33
2022-08-26T05:03:18.452Z,986.33
2022-08-26T05:04:19.022Z,986.36
2022-08-26T05:05:18.412Z,986.33
2022-08-26T05:06:19.095Z,986.40
2022-08-26T05:07:18.390Z,986.37
2022-08-26T05:08:18.417Z,986.37
2022-08-26T05:09:18.380Z,986.37
2022-08-26T05:10:18.375Z,986.35
2022-08-26T05:11:18.354Z,986.36
2022-08-26T05:12:18.334Z,986.38
2022-08-26T05:13:18.342Z,986.37
2022-08-26T05:14:18.315Z,986.39
2022-08-26T05:15:18.315Z,986.38
2022-08-26T05:16:18.318Z,986.37
2022-08-26T05:17:18.287Z,986.38
2022-08-26T05:18:20.011Z,986.37
2022-08-26T05:19:18.969Z,986.39
2022-08-26T05:20:19.866Z,986.35
2022-08-26T05:21:19.240Z,986.36
2022-08-26T05:22:18.388Z,986.37
2022-08-26T05:23:18.242Z,986.33
2022-08-26T05:24:18.228Z,986.37
2022-08-26T05:25:18.197Z,986.38
2022-08-26T05:26:18.190Z,986.41
2022-08-26T05:27:19.205Z,986.41
2022-08-26T05:28:18.181Z,986.36
2022-08-26T05:29:18.156Z,986.40
2022-08-26T05:30:18.153Z,986.35
2022-08-26T05:31:18.187Z,986.31
2022-08-26T05:32:18.137Z,986.32
2022-08-26T05:33:18.142Z,986.33
2022-08-26T05:34:18.109Z,986.34
2022-08-26T05:35:18.094Z,986.35
2022-08-26T05:36:18.093Z,986.35
2022-08-26T05:37:18.088Z,986.39
2022-08-26T05:38:18.066Z,986.39
2022-08-26T05:39:18.050Z,986.41
2022-08-26T05:40:18.102Z,986.39
2022-08-26T05:41:18.031Z,986.42
2022-08-26T05:42:18.038Z,986.42
2022-08-26T05:43:18.038Z,986.40
2022-08-26T05:44:18.024Z,986.43
2022-08-26T05:45:17.990Z,986.44
2022-08-26T05:46:18.069Z,986.40
2022-08-26T05:47:17.969Z,986.46
2022-08-26T05:48:18.000Z,986.43
2022-08-26T05:49:17.946Z,986.47
2022-08-26T05:50:17.941Z,986.43
2022-08-26T05:51:17.927Z,986.47
2022-08-26T05:52:17.918Z,986.50
2022-08-26T05:53:17.923Z,986.48
2022-08-26T05:54:21.270Z,986.48
2022-08-26T05:55:17.895Z,986.50
2022-08-26T05:56:17.896Z,986.49
2022-08-26T05:57:18.544Z,986.52
2022-08-26T05:58:17.897Z,986.52
2022-08-26T05:59:21.249Z,986.52
2022-08-26T06:00:18.833Z,986.50
2022-08-26T06:01:17.893Z,986.52
2022-08-26T06:02:17.890Z,986.53
2022-08-26T06:03:17.891Z,986.57
2022-08-26T06:04:17.798Z,986.55
2022-08-26T06:05:17.787Z,986.56
2022-08-26T06:06:20.726Z,986.59
2022-08-26T06:07:18.796Z,986.59
2022-08-26T06:08:19.599Z,986.61
2022-08-26T06:09:18.302Z,986.63
2022-08-26T06:10:33.047Z,986.63
2022-08-26T06:11:18.877Z,986.59
2022-08-26T06:12:18.578Z,986.60
2022-08-26T06:13:17.715Z,986.60
2022-08-26T06:14:17.694Z,986.64
2022-08-26T06:15:17.678Z,986.64
2022-08-26T06:16:17.729Z,986.62
2022-08-26T06:17:17.656Z,986.66
2022-08-26T06:18:17.661Z,986.69
2022-08-26T06:19:17.637Z,986.66
2022-08-26T06:20:17.639Z,986.65
2022-08-26T06:21:17.620Z,986.63
2022-08-26T06:22:22.241Z,986.63
2022-08-26T06:23:18.605Z,986.63
2022-08-26T06:24:17.584Z,986.64
2022-08-26T06:25:17.576Z,986.63
2022-08-26T06:26:17.570Z,986.65
2022-08-26T06:27:17.550Z,986.66
2022-08-26T06:28:17.563Z,986.67
2022-08-26T06:29:24.127Z,986.68
2022-08-26T06:30:18.524Z,986.69
2022-08-26T06:31:17.605Z,986.68
2022-08-26T06:32:17.515Z,986.67
2022-08-26T06:33:17.534Z,986.70
2022-08-26T06:34:17.521Z,986.68
2022-08-26T06:35:17.508Z,986.69
2022-08-26T06:36:18.590Z,986.66
2022-08-26T06:37:17.448Z,986.69
2022-08-26T06:38:17.450Z,986.72
2022-08-26T06:39:17.425Z,986.73
2022-08-26T06:40:17.490Z,986.75
2022-08-26T06:41:17.416Z,986.74
2022-08-26T06:42:17.401Z,986.75
2022-08-26T06:43:17.421Z,986.77
2022-08-26T06:44:17.390Z,986.75
2022-08-26T06:45:17.365Z,986.71
2022-08-26T06:46:17.451Z,986.74
2022-08-26T06:47:17.346Z,986.76
2022-08-26T06:48:17.375Z,986.79
2022-08-26T06:49:17.443Z,986.74
2022-08-26T06:50:17.319Z,986.73
2022-08-26T06:51:17.308Z,986.76
2022-08-26T06:52:22.536Z,986.75
2022-08-26T06:53:18.326Z,986.74
2022-08-26T06:54:17.273Z,986.73
2022-08-26T06:55:17.280Z,986.74
2022-08-26T06:56:17.259Z,986.76
2022-08-26T06:57:17.258Z,986.76
2022-08-26T06:58:17.234Z,986.71
2022-08-26T06:59:17.243Z,986.74
2022-08-26T07:00:17.232Z,986.73
2022-08-26T07:01:17.262Z,986.74
2022-08-26T07:02:17.227Z,986.74
2022-08-26T07:03:17.294Z,986.72
2022-08-26T07:04:22.175Z,986.71
2022-08-26T07:05:18.187Z,986.77
2022-08-26T07:06:17.155Z,986.72
2022-08-26T07:07:17.141Z,986.75
2022-08-26T07:08:17.140Z,986.71
2022-08-26T07:09:17.142Z,986.71
2022-08-26T07:10:17.112Z,986.71
2022-08-26T07:11:17.112Z,986.70
2022-08-26T07:12:17.089Z,986.74
2022-08-26T07:13:17.089Z,986.69
2022-08-26T07:14:19.331Z,986.70
2022-08-26T07:15:17.059Z,986.77
2022-08-26T07:16:17.107Z,986.71
2022-08-26T07:17:17.038Z,986.76
2022-08-26T07:18:17.039Z,986.72
2022-08-26T07:19:17.043Z,986.71
2022-08-26T07:20:17.014Z,986.70
2022-08-26T07:21:17.011Z,986.71
2022-08-26T07:22:17.713Z,986.73
2022-08-26T07:23:17.321Z,986.75
2022-08-26T07:24:16.999Z,986.71
2022-08-26T07:25:16.961Z,986.74
2022-08-26T07:26:16.958Z,986.80
2022-08-26T07:27:16.952Z,986.79
2022-08-26T07:28:16.943Z,986.78
2022-08-26T07:29:17.715Z,986.75
2022-08-26T07:30:16.910Z,986.75
2022-08-26T07:31:16.998Z,986.74
2022-08-26T07:32:16.905Z,986.74
2022-08-26T07:33:16.889Z,986.77
2022-08-26T07:34:16.905Z,986.75
2022-08-26T07:35:16.875Z,986.79
2022-08-26T07:36:16.889Z,986.74
2022-08-26T07:37:17.668Z,986.74
2022-08-26T07:38:16.827Z,986.78
2022-08-26T07:39:16.840Z,986.79
2022-08-26T07:40:16.859Z,986.80
2022-08-26T07:41:16.850Z,986.86
2022-08-26T07:42:16.784Z,986.85
2022-08-26T07:43:16.771Z,986.78
2022-08-26T07:44:16.808Z,986.82
2022-08-26T07:45:16.761Z,986.80
2022-08-26T07:46:16.760Z,986.80
2022-08-26T07:47:25.621Z,986.82
2022-08-26T07:48:17.723Z,986.82
2022-08-26T07:49:16.842Z,986.86
2022-08-26T07:50:16.707Z,986.86
2022-08-26T07:51:16.690Z,986.88
2022-08-26T07:52:16.683Z,986.87
2022-08-26T07:53:18.031Z,986.87
2022-08-26T07:54:16.676Z,986.87
2022-08-26T07:55:16.656Z,986.88
2022-08-26T07:56:16.646Z,986.91
2022-08-26T07:57:16.639Z,986.89
2022-08-26T07:58:16.624Z,986.91
2022-08-26T07:59:16.629Z,986.88
2022-08-26T08:00:16.621Z,986.92
2022-08-26T08:01:16.676Z,986.91
2022-08-26T08:02:16.582Z,986.95
2022-08-26T08:03:16.593Z,986.90
2022-08-26T08:04:16.561Z,986.94
2022-08-26T08:05:16.618Z,986.93
2022-08-26T08:06:16.543Z,986.93
2022-08-26T08:07:16.542Z,986.93
2022-08-26T08:08:26.503Z,986.86
2022-08-26T08:09:17.521Z,986.85
2022-08-26T08:10:16.527Z,986.87
2022-08-26T08:11:16.530Z,986.88
2022-08-26T08:12:16.482Z,986.86
2022-08-26T08:13:16.477Z,986.88
2022-08-26T08:14:16.491Z,986.88
2022-08-26T08:15:16.450Z,986.87
2022-08-26T08:16:16.440Z,986.83
2022-08-26T08:17:16.432Z,986.81
2022-08-26T08:18:16.486Z,986.78
2022-08-26T08:19:16.424Z,986.81
2022-08-26T08:20:16.405Z,986.83
2022-08-26T08:21:23.667Z,986.82
2022-08-26T08:22:19.825Z,986.85
2022-08-26T08:23:16.380Z,986.85
2022-08-26T08:24:16.441Z,986.85
2022-08-26T08:25:16.351Z,986.88
2022-08-26T08:26:16.889Z,986.91
2022-08-26T08:27:18.091Z,986.93
2022-08-26T08:28:16.320Z,986.89
2022-08-26T08:29:16.328Z,986.90
2022-08-26T08:30:20.904Z,986.93
2022-08-26T08:31:21.590Z,986.92
2022-08-26T08:32:17.291Z,986.87
2022-08-26T08:33:16.284Z,986.85
2022-08-26T08:34:16.291Z,986.91
2022-08-26T08:35:16.247Z,986.89
2022-08-26T08:36:18.624Z,986.92
2022-08-26T08:37:16.237Z,986.86
2022-08-26T08:38:16.257Z,986.84
2022-08-26T08:39:16.208Z,986.84
2022-08-26T08:40:16.265Z,986.85
2022-08-26T08:41:16.186Z,986.89
2022-08-26T08:42:16.177Z,986.89
2022-08-26T08:43:16.205Z,986.83
2022-08-26T08:44:16.204Z,986.82
2022-08-26T08:45:16.868Z,986.82
2022-08-26T08:46:16.252Z,986.82
2022-08-26T08:47:16.123Z,986.85
2022-08-26T08:48:16.113Z,986.82
2022-08-26T08:49:16.140Z,986.84
2022-08-26T08:50:16.094Z,986.83
2022-08-26T08:51:16.088Z,986.87
2022-08-26T08:52:16.074Z,986.84
2022-08-26T08:53:16.065Z,986.86
2022-08-26T08:54:16.068Z,986.80
2022-08-26T08:55:18.056Z,986.80
2022-08-26T08:56:16.039Z,986.78
2022-08-26T08:57:16.041Z,986.81
2022-08-26T08:58:16.044Z,986.78
2022-08-26T08:59:16.016Z,986.78
2022-08-26T09:00:15.993Z,986.80
2022-08-26T09:01:16.027Z,986.78
2022-08-26T09:02:16.777Z,986.78
2022-08-26T09:03:15.957Z,986.81
2022-08-26T09:04:17.284Z,986.80
2022-08-26T09:05:15.941Z,986.75
2022-08-26T09:06:15.931Z,986.79
2022-08-26T09:07:15.926Z,986.82
2022-08-26T09:08:15.909Z,986.74
2022-08-26T09:09:15.934Z,986.77
2022-08-26T09:10:15.909Z,986.78
2022-08-26T09:11:15.878Z,986.75
2022-08-26T09:12:15.902Z,986.75
2022-08-26T09:13:17.019Z,986.80
2022-08-26T09:14:16.857Z,986.76
2022-08-26T09:15:15.857Z,986.74
2022-08-26T09:16:15.932Z,986.76
2022-08-26T09:17:15.810Z,986.77
2022-08-26T09:18:15.803Z,986.73
2022-08-26T09:19:18.932Z,986.86
2022-08-26T09:20:15.782Z,986.73
2022-08-26T09:21:15.778Z,986.75
2022-08-26T09:22:15.816Z,986.74
2022-08-26T09:23:15.763Z,986.72
2022-08-26T09:24:15.761Z,986.68
2022-08-26T09:25:15.738Z,986.74
2022-08-26T09:26:15.722Z,986.70
2022-08-26T09:27:15.712Z,986.71
2022-08-26T09:28:15.746Z,986.76
2022-08-26T09:29:15.809Z,986.68
2022-08-26T09:30:15.679Z,986.66
2022-08-26T09:31:15.714Z,986.64
2022-08-26T09:32:15.661Z,986.67
2022-08-26T09:33:15.939Z,986.63
2022-08-26T09:34:17.241Z,986.63
2022-08-26T09:35:15.627Z,986.67
2022-08-26T09:36:15.620Z,986.72
2022-08-26T09:37:15.628Z,986.65
2022-08-26T09:38:15.916Z,986.64
2022-08-26T09:39:15.615Z,986.68
2022-08-26T09:40:15.641Z,986.67
2022-08-26T09:41:15.569Z,986.66
2022-08-26T09:42:16.797Z,986.65
2022-08-26T09:43:15.547Z,986.62
2022-08-26T09:44:15.730Z,986.65
2022-08-26T09:45:15.534Z,986.63
2022-08-26T09:46:15.657Z,986.58
2022-08-26T09:47:15.510Z,986.61
2022-08-26T09:48:16.587Z,986.59
2022-08-26T09:49:15.530Z,986.60
2022-08-26T09:50:15.483Z,986.64
2022-08-26T09:51:15.478Z,986.58
2022-08-26T09:52:15.454Z,986.62
2022-08-26T09:53:15.450Z,986.55
2022-08-26T09:54:15.460Z,986.59
2022-08-26T09:55:16.434Z,986.54
2022-08-26T09:56:15.410Z,986.59
2022-08-26T09:57:15.407Z,986.56
2022-08-26T09:58:15.392Z,986.57
2022-08-26T09:59:15.386Z,986.66
2022-08-26T10:00:15.599Z,986.61
2022-08-26T10:01:15.429Z,986.59
2022-08-26T10:02:15.366Z,986.59
2022-08-26T10:03:17.377Z,986.54
2022-08-26T10:04:15.408Z,986.56
2022-08-26T10:05:15.357Z,986.48
2022-08-26T10:06:15.315Z,986.49
2022-08-26T10:07:15.305Z,986.51
2022-08-26T10:08:15.289Z,986.55
2022-08-26T10:09:15.279Z,986.48
2022-08-26T10:10:15.382Z,986.45
2022-08-26T10:11:15.261Z,986.38
2022-08-26T10:12:15.270Z,986.39
2022-08-26T10:13:15.242Z,986.44
2022-08-26T10:14:15.243Z,986.37
2022-08-26T10:15:15.246Z,986.42
2022-08-26T10:16:15.274Z,986.37
2022-08-26T10:17:15.198Z,986.37
2022-08-26T10:18:15.191Z,986.41
2022-08-26T10:19:15.793Z,986.38
2022-08-26T10:20:24.960Z,986.40
2022-08-26T10:21:18.052Z,986.34
2022-08-26T10:22:15.149Z,986.34
2022-08-26T10:23:15.151Z,986.34
2022-08-26T10:24:15.127Z,986.32
2022-08-26T10:25:15.149Z,986.32
2022-08-26T10:26:15.105Z,986.32
2022-08-26T10:27:15.096Z,986.26
2022-08-26T10:28:15.088Z,986.24
2022-08-26T10:29:15.803Z,986.27
2022-08-26T10:30:15.140Z,986.21
2022-08-26T10:31:15.055Z,986.26
2022-08-26T10:32:15.097Z,986.21
2022-08-26T10:33:15.036Z,986.21
2022-08-26T10:34:15.085Z,986.19
2022-08-26T10:35:15.060Z,986.23
2022-08-26T10:36:15.302Z,986.16
2022-08-26T10:37:16.649Z,986.17
2022-08-26T10:38:14.982Z,986.17
2022-08-26T10:39:14.976Z,986.20
2022-08-26T10:40:15.106Z,986.25
2022-08-26T10:41:16.866Z,986.16
2022-08-26T10:42:14.977Z,986.18
2022-08-26T10:43:14.932Z,986.18
2022-08-26T10:44:14.925Z,986.10
2022-08-26T10:45:15.448Z,986.11
2022-08-26T10:46:14.946Z,986.11
2022-08-26T10:47:14.892Z,986.11
2022-08-26T10:48:14.892Z,986.12
2022-08-26T10:49:14.873Z,986.12
2022-08-26T10:50:14.875Z,986.15
2022-08-26T10:51:14.866Z,986.12
2022-08-26T10:52:16.480Z,986.17
2022-08-26T10:53:14.849Z,986.08
2022-08-26T10:54:14.831Z,986.10
2022-08-26T10:55:14.825Z,986.11
2022-08-26T10:56:18.009Z,986.04
2022-08-26T10:57:14.793Z,986.13
2022-08-26T10:58:26.120Z,986.02
2022-08-26T10:59:15.767Z,986.00
2022-08-26T11:00:14.781Z,986.06
2022-08-26T11:01:15.329Z,986.04
2022-08-26T11:02:14.738Z,986.04
2022-08-26T11:03:21.913Z,986.04
2022-08-26T11:04:15.842Z,985.98
2022-08-26T11:05:14.777Z,985.98
2022-08-26T11:06:14.708Z,985.98
2022-08-26T11:07:14.689Z,985.97
2022-08-26T11:08:14.728Z,985.97
2022-08-26T11:09:14.681Z,986.00
2022-08-26T11:10:14.664Z,986.02
2022-08-26T11:11:14.648Z,985.96
2022-08-26T11:12:14.693Z,986.00
2022-08-26T11:13:14.629Z,986.00
2022-08-26T11:14:14.633Z,986.01
2022-08-26T11:15:14.609Z,985.98
2022-08-26T11:16:14.652Z,986.00
2022-08-26T11:17:14.588Z,985.95
2022-08-26T11:18:14.587Z,985.99
2022-08-26T11:19:14.584Z,986.00
2022-08-26T11:20:14.556Z,985.97
2022-08-26T11:21:14.545Z,985.96
2022-08-26T11:22:14.534Z,985.93
2022-08-26T11:23:14.531Z,985.96
2022-08-26T11:24:14.542Z,985.99
2022-08-26T11:25:14.510Z,985.99
2022-08-26T11:26:18.855Z,985.97
2022-08-26T11:27:15.492Z,986.01
2022-08-26T11:28:14.490Z,985.99
2022-08-26T11:29:14.571Z,985.97
2022-08-26T11:30:14.481Z,986.01
2022-08-26T11:31:14.487Z,986.02
2022-08-26T11:32:14.435Z,985.98
2022-08-26T11:33:14.441Z,985.98
2022-08-26T11:34:14.428Z,985.93
2022-08-26T11:35:14.409Z,985.95
2022-08-26T11:36:14.396Z,985.98
2022-08-26T11:37:14.453Z,985.99
2022-08-26T11:38:14.375Z,985.91
2022-08-26T11:39:14.383Z,985.94
2022-08-26T11:40:14.495Z,985.99
2022-08-26T11:41:14.348Z,985.95
2022-08-26T11:42:14.356Z,986.04
2022-08-26T11:43:14.331Z,986.01
2022-08-26T11:44:14.322Z,986.02
2022-08-26T11:45:14.348Z,985.95
2022-08-26T11:46:14.391Z,985.97
2022-08-26T11:47:14.286Z,985.93
2022-08-26T11:48:14.277Z,985.91
2022-08-26T11:49:14.272Z,985.95
2022-08-26T11:50:14.267Z,985.95
2022-08-26T11:51:14.244Z,985.92
2022-08-26T11:52:14.251Z,985.94
2022-08-26T11:53:14.226Z,985.93
2022-08-26T11:54:14.218Z,985.89
2022-08-26T11:55:14.255Z,985.89
2022-08-26T11:56:14.200Z,985.86
2022-08-26T11:57:14.204Z,985.88
2022-08-26T11:58:14.175Z,985.96
2022-08-26T11:59:14.180Z,985.89
2022-08-26T12:00:15.835Z,985.91
2022-08-26T12:01:15.156Z,985.90
2022-08-26T12:02:14.136Z,985.95
2022-08-26T12:03:14.133Z,985.92
2022-08-26T12:04:14.310Z,985.89
2022-08-26T12:05:14.113Z,985.89
2022-08-26T12:06:14.289Z,985.85
2022-08-26T12:07:14.091Z,985.88
2022-08-26T12:08:14.073Z,985.88
2022-08-26T12:09:14.103Z,985.84
2022-08-26T12:10:14.065Z,985.80
2022-08-26T12:11:14.055Z,985.83
2022-08-26T12:12:14.829Z,986.00
2022-08-26T12:13:14.026Z,985.85
2022-08-26T12:14:14.015Z,985.88
2022-08-26T12:15:14.019Z,985.94
2022-08-26T12:16:14.030Z,985.87
2022-08-26T12:17:13.988Z,985.87
2022-08-26T12:18:13.980Z,985.88
2022-08-26T12:19:14.001Z,985.88
2022-08-26T12:20:13.969Z,985.82
2022-08-26T12:21:13.947Z,985.86
2022-08-26T12:22:13.936Z,985.79
2022-08-26T12:23:13.926Z,985.78
2022-08-26T12:24:13.937Z,985.80
2022-08-26T12:25:13.925Z,985.83
2022-08-26T12:26:13.894Z,985.89
2022-08-26T12:27:14.837Z,985.90
2022-08-26T12:28:13.874Z,985.83